Time;durP1;ratioP1;P1;durP2;ratioP2;P2;SDS_P1;SDS_P2;PMS_P1;PMS_P2;Temp;Humidity;BMP_temperature;BMP_pressure;BME280_temperature;BME280_humidity;BME280_pressure;Samples;Min_cycle;Max_cycle;Signal;HPM_P1;HPM_P2
2024/03/02 00:01:28;;;;;;;3.90;1.88;;;;;;;;;;5017894;28;20034;-69
2024/03/02 00:03:54;;;;;;;4.97;2.00;;;;;;;;;;5017276;28;20068;-68
2024/03/02 00:06:21;;;;;;;6.50;2.38;;;;;;;;;;5023592;28;20042;-69
2024/03/02 00:08:47;;;;;;;6.35;2.38;;;;;;;;;;5020590;28;20050;-69
2024/03/02 00:11:15;;;;;;;4.93;2.40;;;;;;;;;;5018873;28;20500;-69
2024/03/02 00:13:41;;;;;;;5.97;2.42;;;;;;;;;;5019582;28;20049;-68
2024/03/02 00:16:07;;;;;;;3.78;2.03;;;;;;;;;;5019488;28;20393;-69
2024/03/02 00:18:35;;;;;;;5.90;2.38;;;;;;;;;;5016778;28;20087;-68
2024/03/02 00:21:02;;;;;;;6.78;2.42;;;;;;;;;;5020323;28;20164;-69
2024/03/02 00:23:30;;;;;;;5.00;2.20;;;;;;;;;;5011142;28;20111;-69
2024/03/02 00:25:57;;;;;;;4.80;2.50;;;;;;;;;;5024031;28;20412;-68
2024/03/02 00:28:26;;;;;;;4.28;2.45;;;;;;;;;;5020616;28;20045;-68
2024/03/02 00:30:53;;;;;;;6.68;2.75;;;;;;;;;;5019277;28;20515;-69
2024/03/02 00:33:20;;;;;;;4.63;2.22;;;;;;;;;;5018213;28;20106;-68
2024/03/02 00:35:46;;;;;;;5.47;2.42;;;;;;;;;;5013909;28;20109;-69
2024/03/02 00:38:15;;;;;;;5.97;2.53;;;;;;;;;;5020707;28;20496;-68
2024/03/02 00:40:41;;;;;;;5.00;2.63;;;;;;;;;;5020842;28;20045;-69
2024/03/02 00:43:12;;;;;;;4.25;2.35;;;;;;;;;;5018706;28;20041;-68
2024/03/02 00:45:40;;;;;;;5.18;2.78;;;;;;;;;;5019994;28;20140;-68
2024/03/02 00:48:06;;;;;;;6.32;2.42;;;;;;;;;;5017484;28;20049;-69
2024/03/02 00:50:33;;;;;;;6.82;2.80;;;;;;;;;;5011571;28;20088;-69
2024/03/02 00:53:00;;;;;;;5.93;2.60;;;;;;;;;;5019895;28;20048;-68
2024/03/02 00:55:26;;;;;;;4.63;2.53;;;;;;;;;;5019657;28;20389;-69
2024/03/02 00:57:52;;;;;;;6.75;2.83;;;;;;;;;;5016478;28;20500;-68
2024/03/02 01:00:19;;;;;;;4.68;2.30;;;;;;;;;;5016253;28;20127;-69
2024/03/02 01:02:46;;;;;;;5.57;3.10;;;;;;;;;;5022254;28;20153;-69
2024/03/02 01:05:12;;;;;;;5.43;2.70;;;;;;;;;;5014384;28;20045;-69
2024/03/02 01:07:39;;;;;;;5.75;2.40;;;;;;;;;;5024339;28;20445;-69
2024/03/02 01:10:05;;;;;;;6.65;2.63;;;;;;;;;;5026198;28;20074;-69
2024/03/02 01:12:31;;;;;;;4.25;2.22;;;;;;;;;;5024962;28;20501;-69
2024/03/02 01:14:57;;;;;;;5.03;2.75;;;;;;;;;;5018340;28;20144;-68
2024/03/02 01:17:24;;;;;;;5.43;2.45;;;;;;;;;;5031324;28;20749;-68
2024/03/02 01:19:50;;;;;;;5.63;2.55;;;;;;;;;;5015345;28;21358;-69
2024/03/02 01:22:16;;;;;;;5.35;2.45;;;;;;;;;;5017991;28;20045;-68
2024/03/02 01:24:43;;;;;;;6.93;2.83;;;;;;;;;;5018536;28;21782;-68
2024/03/02 01:27:09;;;;;;;5.30;2.70;;;;;;;;;;5017627;28;20152;-68
2024/03/02 01:29:35;;;;;;;5.47;2.28;;;;;;;;;;5019573;28;20064;-68
2024/03/02 01:32:01;;;;;;;5.47;2.63;;;;;;;;;;5017737;28;20417;-69
2024/03/02 01:34:28;;;;;;;6.18;2.47;;;;;;;;;;5018262;28;20049;-68
2024/03/02 01:36:54;;;;;;;3.78;2.00;;;;;;;;;;5017042;28;20184;-69
2024/03/02 01:39:20;;;;;;;5.13;2.22;;;;;;;;;;5017545;28;20061;-68
2024/03/02 01:41:46;;;;;;;5.28;1.92;;;;;;;;;;5017779;28;20386;-69
2024/03/02 01:44:12;;;;;;;6.25;2.20;;;;;;;;;;5015761;28;20041;-69
2024/03/02 01:46:38;;;;;;;5.78;2.20;;;;;;;;;;5013160;28;20046;-69
2024/03/02 01:49:05;;;;;;;5.68;2.03;;;;;;;;;;5015501;28;20053;-69
2024/03/02 01:51:31;;;;;;;3.78;1.70;;;;;;;;;;5013908;28;20420;-68
2024/03/02 01:53:57;;;;;;;4.60;2.20;;;;;;;;;;5015384;28;20041;-69
2024/03/02 01:56:24;;;;;;;7.05;1.85;;;;;;;;;;5016725;28;20042;-69
2024/03/02 01:58:50;;;;;;;5.20;2.00;;;;;;;;;;5019379;28;20112;-69
2024/03/02 02:01:16;;;;;;;3.85;2.05;;;;;;;;;;5014657;28;20090;-69
2024/03/02 02:03:44;;;;;;;7.32;2.22;;;;;;;;;;5021237;28;20496;-69
2024/03/02 02:06:10;;;;;;;4.80;2.03;;;;;;;;;;5021921;28;20049;-67
2024/03/02 02:08:38;;;;;;;4.07;1.90;;;;;;;;;;5018594;28;20493;-68
2024/03/02 02:11:04;;;;;;;4.90;1.90;;;;;;;;;;5021312;28;20056;-68
2024/03/02 02:13:30;;;;;;;5.20;2.20;;;;;;;;;;5015515;28;20102;-69
2024/03/02 02:16:04;;;;;;;3.42;1.90;;;;;;;;;;5019921;28;20611;-69
2024/03/02 02:18:30;;;;;;;4.60;1.80;;;;;;;;;;5015408;28;20555;-69
2024/03/02 02:20:56;;;;;;;3.33;1.70;;;;;;;;;;5018870;28;20049;-68
2024/03/02 02:23:23;;;;;;;4.20;1.45;;;;;;;;;;5020436;28;20054;-69
2024/03/02 02:25:49;;;;;;;5.05;1.73;;;;;;;;;;5024145;28;20045;-68
2024/03/02 02:28:15;;;;;;;4.15;1.92;;;;;;;;;;5022121;28;20045;-68
2024/03/02 02:30:42;;;;;;;3.47;1.73;;;;;;;;;;5023897;28;20053;-69
2024/03/02 02:33:09;;;;;;;2.80;1.48;;;;;;;;;;5025834;28;20096;-68
2024/03/02 02:35:35;;;;;;;3.88;1.85;;;;;;;;;;5025087;28;20041;-69
2024/03/02 02:38:02;;;;;;;6.10;1.60;;;;;;;;;;5027752;28;20045;-69
2024/03/02 02:40:30;;;;;;;5.22;1.65;;;;;;;;;;5024911;28;20806;-69
2024/03/02 02:42:57;;;;;;;4.00;1.70;;;;;;;;;;5026507;28;20060;-68
2024/03/02 02:45:23;;;;;;;4.25;1.77;;;;;;;;;;5025291;28;20052;-68
2024/03/02 02:47:49;;;;;;;4.78;1.98;;;;;;;;;;5023288;28;20045;-68
2024/03/02 02:50:15;;;;;;;6.47;2.17;;;;;;;;;;5024054;28;20164;-68
2024/03/02 02:52:42;;;;;;;3.42;1.85;;;;;;;;;;5022118;28;20050;-69
2024/03/02 02:55:09;;;;;;;5.20;1.90;;;;;;;;;;5023133;28;20041;-68
2024/03/02 02:57:37;;;;;;;4.95;1.90;;;;;;;;;;5025039;28;20045;-69
2024/03/02 03:00:09;;;;;;;4.97;1.92;;;;;;;;;;5024069;28;20057;-69
2024/03/02 03:02:36;;;;;;;10.40;1.80;;;;;;;;;;5026204;28;20056;-69
2024/03/02 03:05:02;;;;;;;4.13;2.05;;;;;;;;;;5021799;28;20502;-68
2024/03/02 03:07:28;;;;;;;4.55;1.92;;;;;;;;;;5022834;28;20412;-69
2024/03/02 03:09:55;;;;;;;5.25;1.85;;;;;;;;;;5019086;28;20106;-69
2024/03/02 03:12:21;;;;;;;4.47;1.83;;;;;;;;;;5017773;28;20516;-69
2024/03/02 03:14:47;;;;;;;4.50;1.55;;;;;;;;;;5019519;28;20045;-68
2024/03/02 03:17:13;;;;;;;4.00;1.58;;;;;;;;;;5023049;28;20393;-68
2024/03/02 03:19:40;;;;;;;5.28;1.83;;;;;;;;;;5020343;28;20060;-68
2024/03/02 03:22:06;;;;;;;6.03;2.00;;;;;;;;;;5019118;28;20132;-69
2024/03/02 03:24:32;;;;;;;4.45;1.90;;;;;;;;;;5019769;28;20204;-69
2024/03/02 03:26:59;;;;;;;4.95;1.83;;;;;;;;;;5019231;28;20067;-69
2024/03/02 03:29:25;;;;;;;4.63;1.75;;;;;;;;;;5021036;28;20247;-69
2024/03/02 03:31:51;;;;;;;5.03;1.75;;;;;;;;;;5025152;28;20052;-69
2024/03/02 03:34:17;;;;;;;3.15;1.45;;;;;;;;;;5019241;28;20050;-69
2024/03/02 03:36:43;;;;;;;8.32;2.03;;;;;;;;;;5036706;28;20077;-68
2024/03/02 03:39:10;;;;;;;3.20;1.60;;;;;;;;;;5016634;28;20057;-69
2024/03/02 03:41:36;;;;;;;8.15;1.80;;;;;;;;;;5020280;28;20062;-69
2024/03/02 03:44:03;;;;;;;3.33;1.80;;;;;;;;;;5014563;28;20065;-69
2024/03/02 03:46:29;;;;;;;3.92;1.60;;;;;;;;;;5021464;28;20046;-69
2024/03/02 03:48:56;;;;;;;5.35;2.05;;;;;;;;;;5017027;28;20117;-69
2024/03/02 03:51:23;;;;;;;6.95;2.13;;;;;;;;;;5021911;28;20053;-69
2024/03/02 03:53:49;;;;;;;7.28;1.88;;;;;;;;;;5017269;28;20438;-69
2024/03/02 03:56:16;;;;;;;5.72;2.22;;;;;;;;;;5019881;28;20039;-69
2024/03/02 03:58:42;;;;;;;3.65;1.73;;;;;;;;;;5014653;28;20083;-69
2024/03/02 04:01:08;;;;;;;4.97;1.85;;;;;;;;;;5018323;28;20033;-69
2024/03/02 04:03:34;;;;;;;4.57;1.90;;;;;;;;;;5021082;28;20155;-68
2024/03/02 04:06:00;;;;;;;3.83;1.70;;;;;;;;;;5022044;28;20140;-69
2024/03/02 04:08:26;;;;;;;4.70;2.08;;;;;;;;;;5022791;28;20049;-69
2024/03/02 04:10:53;;;;;;;7.03;2.03;;;;;;;;;;5034628;28;20045;-69
2024/03/02 04:13:19;;;;;;;5.57;1.73;;;;;;;;;;5017915;28;20041;-68
2024/03/02 04:15:46;;;;;;;4.53;1.63;;;;;;;;;;5016283;28;20045;-68
2024/03/02 04:18:12;;;;;;;4.43;1.58;;;;;;;;;;5017144;28;20069;-69
2024/03/02 04:20:38;;;;;;;4.22;1.50;;;;;;;;;;5017418;28;20076;-69
2024/03/02 04:23:04;;;;;;;3.30;1.60;;;;;;;;;;5020477;28;20405;-68
2024/03/02 04:25:30;;;;;;;3.83;1.13;;;;;;;;;;5016201;28;20045;-69
2024/03/02 04:27:56;;;;;;;1.65;0.70;;;;;;;;;;5017216;28;20041;-69
2024/03/02 04:30:23;;;;;;;3.55;0.80;;;;;;;;;;5017297;28;20405;-69
2024/03/02 04:32:49;;;;;;;1.70;0.65;;;;;;;;;;5015702;28;20085;-69
2024/03/02 04:35:15;;;;;;;2.22;0.60;;;;;;;;;;5014093;28;20052;-69
2024/03/02 04:37:41;;;;;;;2.17;0.77;;;;;;;;;;5021232;28;20516;-69
2024/03/02 04:40:08;;;;;;;1.05;0.60;;;;;;;;;;5021070;28;20111;-68
2024/03/02 04:42:34;;;;;;;1.85;0.85;;;;;;;;;;5016521;28;20370;-69
2024/03/02 04:45:00;;;;;;;4.18;0.80;;;;;;;;;;5013858;28;20056;-69
2024/03/02 04:47:27;;;;;;;1.92;0.63;;;;;;;;;;5021011;28;20072;-69
2024/03/02 04:49:53;;;;;;;3.65;0.50;;;;;;;;;;5023172;28;20120;-69
2024/03/02 04:52:19;;;;;;;2.00;0.65;;;;;;;;;;5016198;28;20056;-68
2024/03/02 04:57:30;;;;;;;1.75;0.70;;;;;;;;;;5014285;28;20111;-68
2024/03/02 04:59:56;;;;;;;1.17;0.65;;;;;;;;;;5016536;28;20051;-69
2024/03/02 05:02:22;;;;;;;1.42;0.70;;;;;;;;;;5018456;28;20064;-69
2024/03/02 05:04:48;;;;;;;2.22;1.08;;;;;;;;;;5035103;28;20114;-69
2024/03/02 05:07:15;;;;;;;2.65;0.70;;;;;;;;;;5016920;28;20045;-69
2024/03/02 05:09:42;;;;;;;1.25;0.60;;;;;;;;;;5018473;28;20128;-69
2024/03/02 05:14:53;;;;;;;1.60;0.60;;;;;;;;;;5015722;28;20045;-69
2024/03/02 05:17:19;;;;;;;2.65;0.70;;;;;;;;;;5020352;28;20081;-69
2024/03/02 05:19:45;;;;;;;2.45;0.75;;;;;;;;;;5016614;28;20535;-69
2024/03/02 05:22:11;;;;;;;1.02;0.60;;;;;;;;;;5017924;28;20487;-69
2024/03/02 05:24:37;;;;;;;2.05;0.70;;;;;;;;;;5018094;28;20119;-69
2024/03/02 05:27:04;;;;;;;1.70;0.70;;;;;;;;;;5018199;28;20116;-69
2024/03/02 05:29:30;;;;;;;1.00;0.55;;;;;;;;;;5019897;28;20141;-69
2024/03/02 05:31:56;;;;;;;1.63;0.60;;;;;;;;;;5016320;28;20061;-68
2024/03/02 05:34:22;;;;;;;1.85;0.57;;;;;;;;;;5016012;28;20041;-69
2024/03/02 05:36:49;;;;;;;1.15;0.45;;;;;;;;;;5016744;28;20446;-68
2024/03/02 05:39:15;;;;;;;1.60;0.47;;;;;;;;;;5018031;28;20041;-69
2024/03/02 05:41:41;;;;;;;2.03;0.47;;;;;;;;;;5015190;28;20144;-68
2024/03/02 05:44:08;;;;;;;1.90;0.60;;;;;;;;;;5015422;28;20068;-69
2024/03/02 05:46:34;;;;;;;0.88;0.43;;;;;;;;;;5018204;28;20046;-69
2024/03/02 05:49:00;;;;;;;1.88;0.40;;;;;;;;;;5017572;28;20520;-68
2024/03/02 05:51:27;;;;;;;1.70;0.70;;;;;;;;;;5016748;28;20069;-68
2024/03/02 05:53:53;;;;;;;2.45;0.70;;;;;;;;;;5011984;28;20046;-69
2024/03/02 05:56:19;;;;;;;2.42;0.70;;;;;;;;;;5015124;28;20057;-69
2024/03/02 05:59:08;;;;;;;2.08;0.40;;;;;;;;;;5017854;28;20120;-68
2024/03/02 06:01:34;;;;;;;1.38;0.50;;;;;;;;;;5019801;28;20057;-69
2024/03/02 06:04:01;;;;;;;1.75;0.45;;;;;;;;;;5015417;28;20094;-68
2024/03/02 06:06:27;;;;;;;1.80;0.68;;;;;;;;;;5020691;28;20041;-68
2024/03/02 06:08:53;;;;;;;1.73;0.68;;;;;;;;;;5022404;28;20131;-69
2024/03/02 06:11:20;;;;;;;2.30;0.90;;;;;;;;;;5018019;28;20053;-68
2024/03/02 06:13:46;;;;;;;1.55;0.68;;;;;;;;;;5020055;28;20038;-69
2024/03/02 06:16:12;;;;;;;1.80;0.52;;;;;;;;;;5019051;28;20038;-69
2024/03/02 06:18:39;;;;;;;1.30;0.65;;;;;;;;;;5019259;28;20132;-69
2024/03/02 06:21:05;;;;;;;1.83;0.80;;;;;;;;;;5021567;28;20053;-68
2024/03/02 06:23:32;;;;;;;1.60;0.70;;;;;;;;;;5022198;28;20136;-68
2024/03/02 06:25:58;;;;;;;1.90;0.90;;;;;;;;;;5021282;28;20087;-69
2024/03/02 06:28:24;;;;;;;2.92;1.10;;;;;;;;;;5018211;28;20099;-68
2024/03/02 06:30:50;;;;;;;1.90;0.80;;;;;;;;;;5017262;28;20164;-68
2024/03/02 06:33:16;;;;;;;2.92;1.30;;;;;;;;;;5019974;28;20446;-68
2024/03/02 06:35:42;;;;;;;3.85;0.80;;;;;;;;;;5023270;28;20045;-68
2024/03/02 06:38:09;;;;;;;2.92;0.98;;;;;;;;;;5026004;28;20119;-68
2024/03/02 06:40:39;;;;;;;2.47;1.00;;;;;;;;;;5023903;28;20162;-68
2024/03/02 06:43:05;;;;;;;1.50;0.80;;;;;;;;;;5019961;28;20095;-68
2024/03/02 06:45:34;;;;;;;1.90;0.90;;;;;;;;;;5023284;28;20065;-68
2024/03/02 06:48:00;;;;;;;2.10;0.90;;;;;;;;;;5027756;28;20049;-68
2024/03/02 06:50:26;;;;;;;1.85;0.80;;;;;;;;;;5028352;28;20045;-73
2024/03/02 06:52:52;;;;;;;3.45;1.05;;;;;;;;;;5025950;28;20370;-68
2024/03/02 06:55:19;;;;;;;5.13;1.20;;;;;;;;;;5026981;28;20048;-67
2024/03/02 06:57:45;;;;;;;2.72;0.90;;;;;;;;;;5028490;28;20117;-68
2024/03/02 07:00:12;;;;;;;2.25;1.00;;;;;;;;;;5029255;28;20060;-68
2024/03/02 07:02:40;;;;;;;2.25;1.10;;;;;;;;;;5029777;28;20053;-68
2024/03/02 07:05:07;;;;;;;3.70;1.35;;;;;;;;;;5030607;28;20494;-68
2024/03/02 07:07:34;;;;;;;2.25;1.08;;;;;;;;;;5032701;28;20049;-68
2024/03/02 07:10:01;;;;;;;1.45;0.73;;;;;;;;;;5030866;28;20090;-68
2024/03/02 07:12:27;;;;;;;2.50;0.90;;;;;;;;;;5031385;28;20052;-68
2024/03/02 07:17:29;;;;;;;2.67;1.00;;;;;;;;;;5021511;28;20060;-68
2024/03/02 07:19:55;;;;;;;2.03;0.80;;;;;;;;;;5026086;28;20095;-68
2024/03/02 07:22:21;;;;;;;2.40;0.70;;;;;;;;;;5024571;28;20441;-67
2024/03/02 07:24:47;;;;;;;1.77;0.80;;;;;;;;;;5004405;28;20146;-68
2024/03/02 07:27:14;;;;;;;1.88;0.70;;;;;;;;;;5028213;28;20059;-68
2024/03/02 07:29:40;;;;;;;2.90;0.88;;;;;;;;;;5018538;28;20443;-67
2024/03/02 07:32:07;;;;;;;2.80;0.75;;;;;;;;;;5021856;28;20549;-68
2024/03/02 07:34:33;;;;;;;4.65;1.10;;;;;;;;;;5018394;28;20049;-68
2024/03/02 07:37:00;;;;;;;2.22;0.80;;;;;;;;;;5018746;28;20080;-69
2024/03/02 07:39:26;;;;;;;2.13;0.80;;;;;;;;;;5021641;28;20128;-68
2024/03/02 07:41:53;;;;;;;3.83;1.02;;;;;;;;;;5016308;28;20044;-69
2024/03/02 07:44:19;;;;;;;1.73;0.80;;;;;;;;;;5025064;28;20042;-68
2024/03/02 07:46:47;;;;;;;2.88;0.80;;;;;;;;;;5023201;28;20583;-88
2024/03/02 07:49:14;;;;;;;2.17;0.80;;;;;;;;;;4999422;28;20315;-69
2024/03/02 07:51:40;;;;;;;2.83;1.00;;;;;;;;;;5020455;28;20060;-69
2024/03/02 07:54:06;;;;;;;4.15;1.00;;;;;;;;;;5020927;28;20057;-69
2024/03/02 07:56:32;;;;;;;2.13;0.70;;;;;;;;;;5025291;28;21398;-70
2024/03/02 07:59:00;;;;;;;3.92;1.00;;;;;;;;;;5015914;28;20338;-69
2024/03/02 08:01:29;;;;;;;2.08;0.90;;;;;;;;;;5024022;28;20048;-69
2024/03/02 08:03:58;;;;;;;2.78;0.88;;;;;;;;;;5018629;28;20069;-69
2024/03/02 08:06:27;;;;;;;1.05;0.55;;;;;;;;;;5017614;28;20458;-68
2024/03/02 08:08:54;;;;;;;5.35;1.15;;;;;;;;;;5019909;28;20175;-68
2024/03/02 08:11:20;;;;;;;3.25;1.00;;;;;;;;;;5025488;28;20038;-68
2024/03/02 08:13:46;;;;;;;3.10;0.70;;;;;;;;;;5022640;28;20089;-68
2024/03/02 08:16:13;;;;;;;4.20;1.02;;;;;;;;;;5032861;28;20638;-68
2024/03/02 08:18:39;;;;;;;3.33;1.60;;;;;;;;;;5036139;28;20512;-68
2024/03/02 08:21:07;;;;;;;4.25;0.90;;;;;;;;;;5038735;28;20112;-68
2024/03/02 08:23:34;;;;;;;2.03;0.80;;;;;;;;;;5029040;28;20053;-68
2024/03/02 08:26:00;;;;;;;2.15;0.80;;;;;;;;;;5026135;28;20040;-68
2024/03/02 08:28:26;;;;;;;2.42;1.08;;;;;;;;;;5026636;28;20045;-68
2024/03/02 08:30:52;;;;;;;3.55;0.88;;;;;;;;;;5027921;28;20047;-68
2024/03/02 08:33:19;;;;;;;2.13;0.80;;;;;;;;;;5032374;28;20407;-68
2024/03/02 08:35:46;;;;;;;3.38;0.90;;;;;;;;;;5025661;28;20049;-68
2024/03/02 08:38:12;;;;;;;1.33;0.60;;;;;;;;;;5031165;28;20041;-68
2024/03/02 08:40:39;;;;;;;2.78;0.90;;;;;;;;;;5028970;28;20087;-68
2024/03/02 08:43:05;;;;;;;3.00;0.75;;;;;;;;;;5027665;28;20112;-68
2024/03/02 08:45:31;;;;;;;3.67;0.80;;;;;;;;;;5026800;28;20053;-68
2024/03/02 08:47:57;;;;;;;3.70;1.67;;;;;;;;;;5030184;28;20073;-68
2024/03/02 08:50:24;;;;;;;5.82;0.90;;;;;;;;;;5027901;28;20057;-68
2024/03/02 08:52:50;;;;;;;3.15;1.02;;;;;;;;;;5029582;28;20046;-68
2024/03/02 08:55:16;;;;;;;4.28;1.17;;;;;;;;;;5027463;28;20489;-68
2024/03/02 08:57:42;;;;;;;3.65;1.10;;;;;;;;;;5025203;28;20108;-68
2024/03/02 09:00:09;;;;;;;4.35;1.10;;;;;;;;;;5029379;28;20045;-68
2024/03/02 09:02:35;;;;;;;3.65;1.20;;;;;;;;;;5026083;28;20061;-68
2024/03/02 09:05:01;;;;;;;4.07;1.13;;;;;;;;;;5025158;28;20535;-68
2024/03/02 09:07:27;;;;;;;5.30;1.27;;;;;;;;;;5026562;28;20049;-68
2024/03/02 09:09:54;;;;;;;4.82;1.42;;;;;;;;;;5022643;28;20053;-68
2024/03/02 09:12:20;;;;;;;4.00;1.50;;;;;;;;;;5022410;28;20034;-68
2024/03/02 09:14:46;;;;;;;5.53;1.27;;;;;;;;;;5028238;28;20041;-68
2024/03/02 09:17:13;;;;;;;4.47;1.15;;;;;;;;;;5023204;28;20400;-68
2024/03/02 09:19:40;;;;;;;2.97;1.20;;;;;;;;;;5027436;28;20072;-68
2024/03/02 09:22:06;;;;;;;5.97;2.10;;;;;;;;;;5026621;28;20048;-68
2024/03/02 09:24:34;;;;;;;3.90;1.55;;;;;;;;;;5022445;28;20064;-68
2024/03/02 09:27:00;;;;;;;5.65;1.77;;;;;;;;;;5025852;28;20044;-68
2024/03/02 09:29:26;;;;;;;5.43;1.95;;;;;;;;;;5025468;28;20049;-68
2024/03/02 09:31:53;;;;;;;4.72;1.70;;;;;;;;;;5026297;28;20492;-68
2024/03/02 09:34:19;;;;;;;7.15;2.15;;;;;;;;;;5020271;28;20060;-68
2024/03/02 09:36:45;;;;;;;4.68;2.42;;;;;;;;;;5021347;28;20128;-68
2024/03/02 09:39:11;;;;;;;5.00;1.73;;;;;;;;;;5018241;28;20045;-68
2024/03/02 09:41:38;;;;;;;6.43;1.85;;;;;;;;;;5034227;28;20075;-68
2024/03/02 09:44:05;;;;;;;9.80;2.00;;;;;;;;;;5027488;28;20052;-68
2024/03/02 09:46:31;;;;;;;4.57;1.65;;;;;;;;;;5024266;28;20045;-68
2024/03/02 09:48:58;;;;;;;6.40;1.75;;;;;;;;;;5023944;28;20168;-68
2024/03/02 09:51:24;;;;;;;3.60;1.20;;;;;;;;;;5024956;28;20057;-68
2024/03/02 09:53:51;;;;;;;6.18;1.58;;;;;;;;;;5028581;28;20045;-68
2024/03/02 09:56:18;;;;;;;5.95;1.90;;;;;;;;;;5025783;28;20723;-68
2024/03/02 09:58:44;;;;;;;5.28;1.50;;;;;;;;;;5025886;28;20434;-68
2024/03/02 10:01:11;;;;;;;3.88;1.33;;;;;;;;;;5024574;28;20205;-69
2024/03/02 10:03:37;;;;;;;7.22;1.15;;;;;;;;;;5026453;28;20498;-68
2024/03/02 10:06:20;;;;;;;5.10;1.13;;;;;;;;;;5026514;28;20406;-68
2024/03/02 10:08:46;;;;;;;4.82;0.95;;;;;;;;;;5032319;28;20555;-68
2024/03/02 10:11:27;;;;;;;4.80;1.05;;;;;;;;;;5025262;28;20044;-68
2024/03/02 10:14:04;;;;;;;4.15;1.15;;;;;;;;;;5028161;28;20132;-68
2024/03/02 10:16:30;;;;;;;6.68;1.50;;;;;;;;;;5026748;28;20049;-68
2024/03/02 10:18:57;;;;;;;3.72;1.20;;;;;;;;;;5025806;28;20334;-68
2024/03/02 10:21:25;;;;;;;5.72;1.50;;;;;;;;;;5025609;28;20120;-68
2024/03/02 10:23:51;;;;;;;7.63;2.75;;;;;;;;;;5026876;28;20075;-68
2024/03/02 10:26:18;;;;;;;7.05;1.67;;;;;;;;;;5025338;28;20163;-68
2024/03/02 10:28:48;;;;;;;4.72;1.20;;;;;;;;;;5025231;28;20464;-68
2024/03/02 10:31:14;;;;;;;4.00;1.20;;;;;;;;;;5008977;28;20509;-68
2024/03/02 10:33:40;;;;;;;3.97;1.10;;;;;;;;;;5024014;28;20083;-68
2024/03/02 10:36:07;;;;;;;4.35;1.00;;;;;;;;;;5025208;28;20052;-68
2024/03/02 10:38:34;;;;;;;4.28;1.00;;;;;;;;;;5025226;28;20084;-68
2024/03/02 10:41:00;;;;;;;3.45;1.25;;;;;;;;;;5027647;28;20080;-68
2024/03/02 10:43:27;;;;;;;2.90;0.80;;;;;;;;;;5026566;28;20053;-68
2024/03/02 10:45:53;;;;;;;4.45;1.13;;;;;;;;;;5029523;28;20120;-68
2024/03/02 10:48:21;;;;;;;3.03;0.95;;;;;;;;;;5030660;28;20440;-68
2024/03/02 10:50:47;;;;;;;3.50;1.05;;;;;;;;;;5030376;28;20129;-69
2024/03/02 10:53:13;;;;;;;4.75;1.05;;;;;;;;;;5031339;28;20155;-68
2024/03/02 10:55:40;;;;;;;3.60;1.30;;;;;;;;;;5029782;28;20493;-68
2024/03/02 10:58:07;;;;;;;4.13;1.13;;;;;;;;;;5036628;28;20077;-69
2024/03/02 11:00:34;;;;;;;5.15;1.20;;;;;;;;;;5031576;28;20507;-68
2024/03/02 11:03:06;;;;;;;5.88;1.20;;;;;;;;;;5028678;28;20607;-68
2024/03/02 11:05:34;;;;;;;3.00;1.10;;;;;;;;;;5031619;28;20564;-69
2024/03/02 11:08:03;;;;;;;3.58;0.93;;;;;;;;;;5027994;28;20111;-68
2024/03/02 11:10:35;;;;;;;3.25;1.00;;;;;;;;;;5025767;28;20049;-68
2024/03/02 11:13:04;;;;;;;3.35;1.25;;;;;;;;;;5025209;28;20053;-68
2024/03/02 11:15:31;;;;;;;3.50;1.00;;;;;;;;;;5029211;28;20053;-69
2024/03/02 11:17:57;;;;;;;5.60;1.10;;;;;;;;;;5027857;28;20047;-68
2024/03/02 11:20:24;;;;;;;3.65;1.30;;;;;;;;;;5028453;28;20049;-69
2024/03/02 11:22:51;;;;;;;4.25;1.30;;;;;;;;;;5028306;28;20041;-69
2024/03/02 11:25:25;;;;;;;5.75;1.20;;;;;;;;;;5028854;28;20077;-68
2024/03/02 11:27:55;;;;;;;4.78;1.30;;;;;;;;;;5023771;28;20738;-69
2024/03/02 11:30:44;;;;;;;6.55;1.33;;;;;;;;;;5016480;28;20064;-69
2024/03/02 11:33:11;;;;;;;6.78;1.67;;;;;;;;;;5027750;28;20390;-69
2024/03/02 11:35:37;;;;;;;3.08;1.00;;;;;;;;;;5028162;28;20057;-69
2024/03/02 11:38:04;;;;;;;2.47;0.80;;;;;;;;;;5023288;28;20041;-69
2024/03/02 11:40:31;;;;;;;3.55;0.90;;;;;;;;;;5029371;28;20049;-69
2024/03/02 11:42:57;;;;;;;5.72;1.10;;;;;;;;;;5028310;28;20046;-69
2024/03/02 11:45:24;;;;;;;3.28;1.00;;;;;;;;;;5017386;28;20366;-69
2024/03/02 11:47:51;;;;;;;2.42;0.82;;;;;;;;;;5026602;28;20444;-69
2024/03/02 11:50:30;;;;;;;4.10;1.10;;;;;;;;;;5017939;28;20100;-69
2024/03/02 11:52:56;;;;;;;3.80;0.98;;;;;;;;;;5023927;28;20045;-69
2024/03/02 11:55:23;;;;;;;4.55;1.13;;;;;;;;;;5023897;28;20498;-69
2024/03/02 11:57:50;;;;;;;3.63;0.90;;;;;;;;;;5028966;28;20049;-69
2024/03/02 12:00:18;;;;;;;3.60;1.10;;;;;;;;;;5028912;28;20033;-69
2024/03/02 12:02:49;;;;;;;3.95;0.88;;;;;;;;;;5028877;28;20350;-69
2024/03/02 12:05:16;;;;;;;3.22;0.70;;;;;;;;;;5023229;28;20050;-69
2024/03/02 12:07:43;;;;;;;3.72;1.10;;;;;;;;;;5029196;28;21838;-69
2024/03/02 12:10:09;;;;;;;2.05;0.70;;;;;;;;;;5025019;28;20045;-69
2024/03/02 12:12:35;;;;;;;2.55;0.85;;;;;;;;;;5027054;28;20145;-69
2024/03/02 12:15:03;;;;;;;6.53;1.08;;;;;;;;;;5029812;28;20045;-69
2024/03/02 12:17:29;;;;;;;6.60;1.15;;;;;;;;;;5028683;28;20049;-69
2024/03/02 12:19:56;;;;;;;3.50;1.20;;;;;;;;;;5027266;28;20065;-69
2024/03/02 12:22:22;;;;;;;4.07;1.15;;;;;;;;;;5028214;28;20041;-69
2024/03/02 12:24:48;;;;;;;3.45;0.93;;;;;;;;;;5027858;28;20354;-69
2024/03/02 12:27:15;;;;;;;3.10;1.10;;;;;;;;;;5027273;28;20056;-69
2024/03/02 12:29:42;;;;;;;3.55;1.00;;;;;;;;;;5027429;28;20421;-69
2024/03/02 12:32:08;;;;;;;4.25;1.15;;;;;;;;;;5023725;28;20118;-69
2024/03/02 12:34:35;;;;;;;4.15;1.00;;;;;;;;;;5024599;28;20049;-69
2024/03/02 12:37:01;;;;;;;4.38;1.38;;;;;;;;;;5029389;28;20461;-69
2024/03/02 12:39:27;;;;;;;4.57;0.98;;;;;;;;;;5030595;28;20048;-69
2024/03/02 12:41:55;;;;;;;5.32;1.10;;;;;;;;;;5034015;28;20060;-69
2024/03/02 12:44:21;;;;;;;4.20;1.10;;;;;;;;;;5029768;28;20147;-69
2024/03/02 12:46:47;;;;;;;3.58;1.00;;;;;;;;;;5031464;28;20057;-69
2024/03/02 12:49:16;;;;;;;3.05;0.90;;;;;;;;;;5029082;28;20483;-69
2024/03/02 12:51:42;;;;;;;3.90;0.75;;;;;;;;;;5044338;28;20048;-69
2024/03/02 12:54:09;;;;;;;3.63;0.90;;;;;;;;;;5029918;28;20132;-69
2024/03/02 12:56:36;;;;;;;3.50;1.00;;;;;;;;;;5030401;28;20071;-69
2024/03/02 12:59:02;;;;;;;3.50;1.00;;;;;;;;;;5024895;28;20048;-69
2024/03/02 13:01:28;;;;;;;5.38;1.50;;;;;;;;;;5047291;28;20049;-69
2024/03/02 13:03:55;;;;;;;4.18;0.80;;;;;;;;;;5029313;28;20152;-69
2024/03/02 13:06:22;;;;;;;3.72;0.88;;;;;;;;;;5030640;28;20045;-69
2024/03/02 13:08:49;;;;;;;3.78;1.08;;;;;;;;;;5028555;28;20051;-69
2024/03/02 13:11:16;;;;;;;3.40;0.88;;;;;;;;;;5044468;28;20045;-69
2024/03/02 13:13:43;;;;;;;3.15;0.82;;;;;;;;;;5028960;28;20083;-69
2024/03/02 13:16:12;;;;;;;3.95;0.85;;;;;;;;;;5029520;28;20129;-69
2024/03/02 13:18:40;;;;;;;4.75;1.00;;;;;;;;;;5029249;28;20103;-69
2024/03/02 13:21:06;;;;;;;5.13;1.10;;;;;;;;;;5049176;28;20080;-69
2024/03/02 13:23:32;;;;;;;6.55;1.13;;;;;;;;;;5028554;28;20515;-69
2024/03/02 13:25:59;;;;;;;5.22;0.80;;;;;;;;;;5030487;28;20108;-69
2024/03/02 13:28:26;;;;;;;4.00;1.00;;;;;;;;;;5044545;28;20056;-69
2024/03/02 13:30:52;;;;;;;3.38;1.17;;;;;;;;;;5028459;28;20057;-69
2024/03/02 13:33:22;;;;;;;3.45;0.88;;;;;;;;;;5029510;28;20045;-69
2024/03/02 13:35:49;;;;;;;4.53;1.33;;;;;;;;;;5025109;28;20061;-69
2024/03/02 13:38:17;;;;;;;5.22;1.00;;;;;;;;;;5044207;28;20104;-69
2024/03/02 13:40:43;;;;;;;3.90;1.08;;;;;;;;;;5028920;28;20412;-69
2024/03/02 13:43:10;;;;;;;5.38;1.00;;;;;;;;;;5047230;28;20037;-69
2024/03/02 13:45:36;;;;;;;4.25;0.90;;;;;;;;;;5046838;28;20049;-69
2024/03/02 13:48:03;;;;;;;3.33;0.85;;;;;;;;;;5029492;28;20045;-69
2024/03/02 13:50:30;;;;;;;3.05;1.00;;;;;;;;;;5028731;28;20471;-69
2024/03/02 13:52:56;;;;;;;3.63;0.90;;;;;;;;;;5047646;28;20045;-69
2024/03/02 13:55:23;;;;;;;3.47;0.90;;;;;;;;;;5044941;28;20073;-69
2024/03/02 13:57:50;;;;;;;2.67;0.88;;;;;;;;;;5028215;28;20054;-69
2024/03/02 14:00:17;;;;;;;3.55;0.77;;;;;;;;;;5028225;28;20037;-69
2024/03/02 14:02:44;;;;;;;4.45;0.80;;;;;;;;;;5025631;28;20476;-69
2024/03/02 14:05:11;;;;;;;3.00;0.63;;;;;;;;;;5046785;28;20041;-69
2024/03/02 14:07:39;;;;;;;5.45;1.00;;;;;;;;;;5029139;28;20048;-69
2024/03/02 14:10:05;;;;;;;3.30;0.70;;;;;;;;;;5046980;28;20105;-69
2024/03/02 14:12:31;;;;;;;2.35;0.80;;;;;;;;;;5028408;28;20053;-69
2024/03/02 14:14:59;;;;;;;2.97;0.68;;;;;;;;;;5047293;28;20033;-69
2024/03/02 14:17:25;;;;;;;3.63;0.90;;;;;;;;;;5047540;28;20103;-69
2024/03/02 14:19:53;;;;;;;4.57;1.20;;;;;;;;;;5029816;28;20045;-69
2024/03/02 14:22:20;;;;;;;2.50;0.60;;;;;;;;;;5050344;28;20122;-69
2024/03/02 14:24:47;;;;;;;3.42;0.93;;;;;;;;;;5030208;28;20062;-69
2024/03/02 14:27:14;;;;;;;4.13;1.00;;;;;;;;;;5050648;28;20123;-69
2024/03/02 14:29:40;;;;;;;3.28;0.82;;;;;;;;;;5033658;28;20103;-69
2024/03/02 14:32:07;;;;;;;6.28;1.10;;;;;;;;;;5048213;28;20374;-69
2024/03/02 14:34:33;;;;;;;3.67;1.02;;;;;;;;;;5047374;28;20051;-69
2024/03/02 14:37:00;;;;;;;4.45;1.10;;;;;;;;;;5030182;28;20090;-69
2024/03/02 14:39:26;;;;;;;4.30;1.08;;;;;;;;;;5050711;28;20132;-69
2024/03/02 14:41:54;;;;;;;1.55;0.70;;;;;;;;;;5034488;28;20123;-69
2024/03/02 14:44:21;;;;;;;2.90;1.00;;;;;;;;;;5050263;28;20437;-69
2024/03/02 14:46:48;;;;;;;4.28;1.25;;;;;;;;;;5017365;28;20052;-69
2024/03/02 14:49:14;;;;;;;4.15;1.45;;;;;;;;;;5032391;28;20041;-69